Aviation Digital Data Service (ADDS)

Output produced by METARs form (1130 UTC 19 February 2019)
found at http://www.aviationweather.gov/metar/data/
 
METAR text: VLVT 191100Z 36004KT 6000 SCT020 30/19 Q1011 NOSIG
Conditions at: VLVT (VIENTIANE/WATTAY, LA) observed 1100 UTC 19 February 2019
Temperature: 30.0°C (86°F)
Dewpoint: 19.0°C (66°F) [RH = 52%]
Pressure (altimeter): 29.85 inches Hg (1011.0 mb)
Winds: from the N (360 degrees) at 5 MPH (4 knots; 2.1 m/s)
Visibility: 4 miles ( 6 km)
Ceiling: at least 12,000 feet AGL
Clouds: scattered clouds at 2000 feet AGL
Weather: no significant weather observed at this time

METAR text: VLVT 191030Z 36002KT 8000 SCT020 31/18 Q1011 NOSIG
Conditions at: VLVT (VIENTIANE/WATTAY, LA) observed 1030 UTC 19 February 2019
Temperature: 31.0°C (88°F)
Dewpoint: 18.0°C (64°F) [RH = 46%]
Pressure (altimeter): 29.85 inches Hg (1011.0 mb)
Winds: from the N (360 degrees) at 2 MPH (2 knots; 1.0 m/s)
Visibility: 5 miles ( 8 km)
Ceiling: at least 12,000 feet AGL
Clouds: scattered clouds at 2000 feet AGL
Weather: no significant weather observed at this time

METAR text: VLVT 191000Z 04004KT 8000 SCT020 32/18 Q1010 NOSIG
Conditions at: VLVT (VIENTIANE/WATTAY, LA) observed 1000 UTC 19 February 2019
Temperature: 32.0°C (90°F)
Dewpoint: 18.0°C (64°F) [RH = 43%]
Pressure (altimeter): 29.82 inches Hg (1010.0 mb)
Winds: from the NE (40 degrees) at 5 MPH (4 knots; 2.1 m/s)
Visibility: 5 miles ( 8 km)
Ceiling: at least 12,000 feet AGL
Clouds: scattered clouds at 2000 feet AGL
Weather: no significant weather observed at this time

METAR text: VLVT 190930Z 04004KT 8000 SCT020 32/18 Q1010 NOSIG
Conditions at: VLVT (VIENTIANE/WATTAY, LA) observed 0930 UTC 19 February 2019
Temperature: 32.0°C (90°F)
Dewpoint: 18.0°C (64°F) [RH = 43%]
Pressure (altimeter): 29.82 inches Hg (1010.0 mb)
Winds: from the NE (40 degrees) at 5 MPH (4 knots; 2.1 m/s)
Visibility: 5 miles ( 8 km)
Ceiling: at least 12,000 feet AGL
Clouds: scattered clouds at 2000 feet AGL
Weather: no significant weather observed at this time

METAR text: VLVT 190900Z 36004KT 8000 SCT020 33/18 Q1010 NOSIG
Conditions at: VLVT (VIENTIANE/WATTAY, LA) observed 0900 UTC 19 February 2019
Temperature: 33.0°C (91°F)
Dewpoint: 18.0°C (64°F) [RH = 41%]
Pressure (altimeter): 29.82 inches Hg (1010.0 mb)
Winds: from the N (360 degrees) at 5 MPH (4 knots; 2.1 m/s)
Visibility: 5 miles ( 8 km)
Ceiling: at least 12,000 feet AGL
Clouds: scattered clouds at 2000 feet AGL
Weather: no significant weather observed at this time

METAR text: VLVT 190830Z 20004KT 8000 SCT020 BKN040 33/16 Q1010 NOSIG
Conditions at: VLVT (VIENTIANE/WATTAY, LA) observed 0830 UTC 19 February 2019
Temperature: 33.0°C (91°F)
Dewpoint: 16.0°C (61°F) [RH = 36%]
Pressure (altimeter): 29.82 inches Hg (1010.0 mb)
Winds: from the SSW (200 degrees) at 5 MPH (4 knots; 2.1 m/s)
Visibility: 5 miles ( 8 km)
Ceiling: 4000 feet AGL
Clouds: scattered clouds at 2000 feet AGL
broken clouds at 4000 feet AGL
Weather: no significant weather observed at this time

METAR text: VLVT 190800Z 18004KT 8000 SCT020 BKN040 33/18 Q1010 NOSIG
Conditions at: VLVT (VIENTIANE/WATTAY, LA) observed 0800 UTC 19 February 2019
Temperature: 33.0°C (91°F)
Dewpoint: 18.0°C (64°F) [RH = 41%]
Pressure (altimeter): 29.82 inches Hg (1010.0 mb)
Winds: from the S (180 degrees) at 5 MPH (4 knots; 2.1 m/s)
Visibility: 5 miles ( 8 km)
Ceiling: 4000 feet AGL
Clouds: scattered clouds at 2000 feet AGL
broken clouds at 4000 feet AGL
Weather: no significant weather observed at this time

METAR text: VLVT 190730Z 16006KT 8000 SCT020 BKN040 33/20 Q1011 NOSIG
Conditions at: VLVT (VIENTIANE/WATTAY, LA) observed 0730 UTC 19 February 2019
Temperature: 33.0°C (91°F)
Dewpoint: 20.0°C (68°F) [RH = 46%]
Pressure (altimeter): 29.85 inches Hg (1011.0 mb)
Winds: from the SSE (160 degrees) at 7 MPH (6 knots; 3.1 m/s)
Visibility: 5 miles ( 8 km)
Ceiling: 4000 feet AGL
Clouds: scattered clouds at 2000 feet AGL
broken clouds at 4000 feet AGL
Weather: no significant weather observed at this time

METAR text: VLVT 190700Z 12004KT 7000 SCT020 BKN040 32/19 Q1011 NOSIG
Conditions at: VLVT (VIENTIANE/WATTAY, LA) observed 0700 UTC 19 February 2019
Temperature: 32.0°C (90°F)
Dewpoint: 19.0°C (66°F) [RH = 46%]
Pressure (altimeter): 29.85 inches Hg (1011.0 mb)
Winds: from the ESE (120 degrees) at 5 MPH (4 knots; 2.1 m/s)
Visibility: 4 miles ( 7 km)
Ceiling: 4000 feet AGL
Clouds: scattered clouds at 2000 feet AGL
broken clouds at 4000 feet AGL
Weather: no significant weather observed at this time

METAR text: VLVT 190630Z 22002KT 8000 SCT020 32/19 Q1012 NOSIG
Conditions at: VLVT (VIENTIANE/WATTAY, LA) observed 0630 UTC 19 February 2019
Temperature: 32.0°C (90°F)
Dewpoint: 19.0°C (66°F) [RH = 46%]
Pressure (altimeter): 29.88 inches Hg (1012.0 mb)
Winds: from the SW (220 degrees) at 2 MPH (2 knots; 1.0 m/s)
Visibility: 5 miles ( 8 km)
Ceiling: at least 12,000 feet AGL
Clouds: scattered clouds at 2000 feet AGL
Weather: no significant weather observed at this time

METAR text: VLVT 190600Z 09004KT 7000 SCT020 32/19 Q1012 NOSIG
Conditions at: VLVT (VIENTIANE/WATTAY, LA) observed 0600 UTC 19 February 2019
Temperature: 32.0°C (90°F)
Dewpoint: 19.0°C (66°F) [RH = 46%]
Pressure (altimeter): 29.88 inches Hg (1012.0 mb)
Winds: from the E (90 degrees) at 5 MPH (4 knots; 2.1 m/s)
Visibility: 4 miles ( 7 km)
Ceiling: at least 12,000 feet AGL
Clouds: scattered clouds at 2000 feet AGL
Weather: no significant weather observed at this time

METAR text: VLVT 190530Z 14002KT 7000 SCT020 31/19 Q1013 NOSIG
Conditions at: VLVT (VIENTIANE/WATTAY, LA) observed 0530 UTC 19 February 2019
Temperature: 31.0°C (88°F)
Dewpoint: 19.0°C (66°F) [RH = 49%]
Pressure (altimeter): 29.91 inches Hg (1013.0 mb)
Winds: from the SE (140 degrees) at 2 MPH (2 knots; 1.0 m/s)
Visibility: 4 miles ( 7 km)
Ceiling: at least 12,000 feet AGL
Clouds: scattered clouds at 2000 feet AGL
Weather: no significant weather observed at this time

METAR text: VLVT 190500Z 16002KT 7000 SCT020 31/19 Q1014 NOSIG
Conditions at: VLVT (VIENTIANE/WATTAY, LA) observed 0500 UTC 19 February 2019
Temperature: 31.0°C (88°F)
Dewpoint: 19.0°C (66°F) [RH = 49%]
Pressure (altimeter): 29.94 inches Hg (1014.0 mb)
Winds: from the SSE (160 degrees) at 2 MPH (2 knots; 1.0 m/s)
Visibility: 4 miles ( 7 km)
Ceiling: at least 12,000 feet AGL
Clouds: scattered clouds at 2000 feet AGL
Weather: no significant weather observed at this time

METAR text: VLVT 190430Z 27004KT 7000 NSC 30/20 Q1014 NOSIG
Conditions at: VLVT (VIENTIANE/WATTAY, LA) observed 0430 UTC 19 February 2019
Temperature: 30.0°C (86°F)
Dewpoint: 20.0°C (68°F) [RH = 55%]
Pressure (altimeter): 29.94 inches Hg (1014.0 mb)
Winds: from the W (270 degrees) at 5 MPH (4 knots; 2.1 m/s)
Visibility: 4 miles ( 7 km)
Ceiling: at least 12,000 feet AGL
Clouds: sky clear below 12,000 feet AGL
Weather: no significant weather observed at this time

METAR text: VLVT 190400Z 00000KT 7000 NSC 30/20 Q1015 NOSIG
Conditions at: VLVT (VIENTIANE/WATTAY, LA) observed 0400 UTC 19 February 2019
Temperature: 30.0°C (86°F)
Dewpoint: 20.0°C (68°F) [RH = 55%]
Pressure (altimeter): 29.97 inches Hg (1015.0 mb)
Winds: calm
Visibility: 4 miles ( 7 km)
Ceiling: at least 12,000 feet AGL
Clouds: sky clear below 12,000 feet AGL
Weather: no significant weather observed at this time

METAR text: VLVT 190330Z 12002KT 60000 NSC 29/22 Q1015 NOSIG
Conditions at: VLVT (VIENTIANE/WATTAY, LA) observed 0330 UTC 19 February 2019
Temperature: 29.0°C (84°F)
Dewpoint: 22.0°C (72°F) [RH = 66%]
Pressure (altimeter): 29.97 inches Hg (1015.0 mb)
Winds: from the ESE (120 degrees) at 2 MPH (2 knots; 1.0 m/s)
Visibility: 0.00 miles (0.00 km)
Ceiling: at least 12,000 feet AGL
Clouds: sky clear below 12,000 feet AGL
Weather: no significant weather observed at this time

METAR text: VLVT 190300Z 32002KT 5000 BR NSC 25/22 Q1014 NOSIG
Conditions at: VLVT (VIENTIANE/WATTAY, LA) observed 0300 UTC 19 February 2019
Temperature: 25.0°C (77°F)
Dewpoint: 22.0°C (72°F) [RH = 83%]
Pressure (altimeter): 29.94 inches Hg (1014.0 mb)
Winds: from the NW (320 degrees) at 2 MPH (2 knots; 1.0 m/s)
Visibility: 3 miles ( 5 km)
Ceiling: at least 12,000 feet AGL
Clouds: sky clear below 12,000 feet AGL
Weather: BR  (mist)

METAR text: VLVT 190230Z 34002KT 6000 NSC 26/22 Q1015 NOSIG
Conditions at: VLVT (VIENTIANE/WATTAY, LA) observed 0230 UTC 19 February 2019
Temperature: 26.0°C (79°F)
Dewpoint: 22.0°C (72°F) [RH = 79%]
Pressure (altimeter): 29.97 inches Hg (1015.0 mb)
Winds: from the NNW (340 degrees) at 2 MPH (2 knots; 1.0 m/s)
Visibility: 4 miles ( 6 km)
Ceiling: at least 12,000 feet AGL
Clouds: sky clear below 12,000 feet AGL
Weather: no significant weather observed at this time

METAR text: VLVT 190200Z 32002KT 5000 BR NSC 25/22 Q1014 NOSIG
Conditions at: VLVT (VIENTIANE/WATTAY, LA) observed 0200 UTC 19 February 2019
Temperature: 25.0°C (77°F)
Dewpoint: 22.0°C (72°F) [RH = 83%]
Pressure (altimeter): 29.94 inches Hg (1014.0 mb)
Winds: from the NW (320 degrees) at 2 MPH (2 knots; 1.0 m/s)
Visibility: 3 miles ( 5 km)
Ceiling: at least 12,000 feet AGL
Clouds: sky clear below 12,000 feet AGL
Weather: BR  (mist)

METAR text: VLVT 190100Z 14002KT 5000 BR NSC 23/23 Q1014 NOSIG
Conditions at: VLVT (VIENTIANE/WATTAY, LA) observed 0100 UTC 19 February 2019
Temperature: 23.0°C (73°F)
Dewpoint: 23.0°C (73°F) [RH = 100%]
Pressure (altimeter): 29.94 inches Hg (1014.0 mb)
Winds: from the SE (140 degrees) at 2 MPH (2 knots; 1.0 m/s)
Visibility: 3 miles ( 5 km)
Ceiling: at least 12,000 feet AGL
Clouds: sky clear below 12,000 feet AGL
Weather: BR  (mist)

METAR text: VLVT 190030Z 00000KT 4000 BR NSC 20/20 Q1013 NOSIG
Conditions at: VLVT (VIENTIANE/WATTAY, LA) observed 0030 UTC 19 February 2019
Temperature: 20.0°C (68°F)
Dewpoint: 20.0°C (68°F) [RH = 100%]
Pressure (altimeter): 29.91 inches Hg (1013.0 mb)
Winds: calm
Visibility: 2.49 miles (4.01 km)
Ceiling: at least 12,000 feet AGL
Clouds: sky clear below 12,000 feet AGL
Weather: BR  (mist)

METAR text: VLVT 190000Z 00000KT 4000 BR NSC 20/20 Q1012 NOSIG
Conditions at: VLVT (VIENTIANE/WATTAY, LA) observed 0000 UTC 19 February 2019
Temperature: 20.0°C (68°F)
Dewpoint: 20.0°C (68°F) [RH = 100%]
Pressure (altimeter): 29.88 inches Hg (1012.0 mb)
Winds: calm
Visibility: 2.49 miles (4.01 km)
Ceiling: at least 12,000 feet AGL
Clouds: sky clear below 12,000 feet AGL
Weather: BR  (mist)

METAR text: VLVT 182330Z 00000KT 4000 BR NSC 20/20 Q1012 NOSIG
Conditions at: VLVT (VIENTIANE/WATTAY, LA) observed 2330 UTC 18 February 2019
Temperature: 20.0°C (68°F)
Dewpoint: 20.0°C (68°F) [RH = 100%]
Pressure (altimeter): 29.88 inches Hg (1012.0 mb)
Winds: calm
Visibility: 2.49 miles (4.01 km)
Ceiling: at least 12,000 feet AGL
Clouds: sky clear below 12,000 feet AGL
Weather: BR  (mist)

METAR text: VLVT 182300Z 00000KT 4000 BR NSC 20/20 Q1011 NOSIG
Conditions at: VLVT (VIENTIANE/WATTAY, LA) observed 2300 UTC 18 February 2019
Temperature: 20.0°C (68°F)
Dewpoint: 20.0°C (68°F) [RH = 100%]
Pressure (altimeter): 29.85 inches Hg (1011.0 mb)
Winds: calm
Visibility: 2.49 miles (4.01 km)
Ceiling: at least 12,000 feet AGL
Clouds: sky clear below 12,000 feet AGL
Weather: BR  (mist)

METAR text: VLVT 181600Z 02002KT 3000 BR NSC 23/22 Q1012 NOSIG
Conditions at: VLVT (VIENTIANE/WATTAY, LA) observed 1600 UTC 18 February 2019
Temperature: 23.0°C (73°F)
Dewpoint: 22.0°C (72°F) [RH = 94%]
Pressure (altimeter): 29.88 inches Hg (1012.0 mb)
Winds: from the NNE (20 degrees) at 2 MPH (2 knots; 1.0 m/s)
Visibility: 1.86 miles (2.99 km)
Ceiling: at least 12,000 feet AGL
Clouds: sky clear below 12,000 feet AGL
Weather: BR  (mist)

METAR text: VLVT 181530Z 32002KT 4000 BR NSC 23/22 Q1011 NOSIG
Conditions at: VLVT (VIENTIANE/WATTAY, LA) observed 1530 UTC 18 February 2019
Temperature: 23.0°C (73°F)
Dewpoint: 22.0°C (72°F) [RH = 94%]
Pressure (altimeter): 29.85 inches Hg (1011.0 mb)
Winds: from the NW (320 degrees) at 2 MPH (2 knots; 1.0 m/s)
Visibility: 2.49 miles (4.01 km)
Ceiling: at least 12,000 feet AGL
Clouds: sky clear below 12,000 feet AGL
Weather: BR  (mist)

METAR text: VLVT 181500Z 30002KT 4000 BR NSC 24/23 Q1011 NOSIG
Conditions at: VLVT (VIENTIANE/WATTAY, LA) observed 1500 UTC 18 February 2019
Temperature: 24.0°C (75°F)
Dewpoint: 23.0°C (73°F) [RH = 94%]
Pressure (altimeter): 29.85 inches Hg (1011.0 mb)
Winds: from the WNW (300 degrees) at 2 MPH (2 knots; 1.0 m/s)
Visibility: 2.49 miles (4.01 km)
Ceiling: at least 12,000 feet AGL
Clouds: sky clear below 12,000 feet AGL
Weather: BR  (mist)

METAR text: VLVT 181430Z 36002KT 4000 BR NSC 24/22 Q1011 NOSIG
Conditions at: VLVT (VIENTIANE/WATTAY, LA) observed 1430 UTC 18 February 2019
Temperature: 24.0°C (75°F)
Dewpoint: 22.0°C (72°F) [RH = 89%]
Pressure (altimeter): 29.85 inches Hg (1011.0 mb)
Winds: from the N (360 degrees) at 2 MPH (2 knots; 1.0 m/s)
Visibility: 2.49 miles (4.01 km)
Ceiling: at least 12,000 feet AGL
Clouds: sky clear below 12,000 feet AGL
Weather: BR  (mist)

METAR text: VLVT 181400Z 00000KT 4000 BR NSC 24/22 Q1011 NOSIG
Conditions at: VLVT (VIENTIANE/WATTAY, LA) observed 1400 UTC 18 February 2019
Temperature: 24.0°C (75°F)
Dewpoint: 22.0°C (72°F) [RH = 89%]
Pressure (altimeter): 29.85 inches Hg (1011.0 mb)
Winds: calm
Visibility: 2.49 miles (4.01 km)
Ceiling: at least 12,000 feet AGL
Clouds: sky clear below 12,000 feet AGL
Weather: BR  (mist)

METAR text: VLVT 181330Z 00000KT 4000 BR FEW050 25/22 Q1011 NOSIG
Conditions at: VLVT (VIENTIANE/WATTAY, LA) observed 1330 UTC 18 February 2019
Temperature: 25.0°C (77°F)
Dewpoint: 22.0°C (72°F) [RH = 83%]
Pressure (altimeter): 29.85 inches Hg (1011.0 mb)
Winds: calm
Visibility: 2.49 miles (4.01 km)
Ceiling: at least 12,000 feet AGL
Clouds: few clouds at 5000 feet AGL
Weather: BR  (mist)

METAR text: VLVT 181300Z 34002KT 4000 BR FEW050 25/21 Q1010 NOSIG
Conditions at: VLVT (VIENTIANE/WATTAY, LA) observed 1300 UTC 18 February 2019
Temperature: 25.0°C (77°F)
Dewpoint: 21.0°C (70°F) [RH = 79%]
Pressure (altimeter): 29.82 inches Hg (1010.0 mb)
Winds: from the NNW (340 degrees) at 2 MPH (2 knots; 1.0 m/s)
Visibility: 2.49 miles (4.01 km)
Ceiling: at least 12,000 feet AGL
Clouds: few clouds at 5000 feet AGL
Weather: BR  (mist)

METAR text: VLVT 181230Z 06002KT 4000 BR FEW050 26/20 Q1010 NOSIG
Conditions at: VLVT (VIENTIANE/WATTAY, LA) observed 1230 UTC 18 February 2019
Temperature: 26.0°C (79°F)
Dewpoint: 20.0°C (68°F) [RH = 70%]
Pressure (altimeter): 29.82 inches Hg (1010.0 mb)
Winds: from the ENE (60 degrees) at 2 MPH (2 knots; 1.0 m/s)
Visibility: 2.49 miles (4.01 km)
Ceiling: at least 12,000 feet AGL
Clouds: few clouds at 5000 feet AGL
Weather: BR  (mist)

METAR text: VLVT 181200Z 09002KT 4000 BR FEW050 27/20 Q1009 NOSIG
Conditions at: VLVT (VIENTIANE/WATTAY, LA) observed 1200 UTC 18 February 2019
Temperature: 27.0°C (81°F)
Dewpoint: 20.0°C (68°F) [RH = 66%]
Pressure (altimeter): 29.79 inches Hg (1009.0 mb)
Winds: from the E (90 degrees) at 2 MPH (2 knots; 1.0 m/s)
Visibility: 2.49 miles (4.01 km)
Ceiling: at least 12,000 feet AGL
Clouds: few clouds at 5000 feet AGL
Weather: BR  (mist)

METAR text: VLVT 181130Z 06002KT 4000 BR FEW020 27/21 Q1009 NOSIG
Conditions at: VLVT (VIENTIANE/WATTAY, LA) observed 1130 UTC 18 February 2019
Temperature: 27.0°C (81°F)
Dewpoint: 21.0°C (70°F) [RH = 70%]
Pressure (altimeter): 29.79 inches Hg (1009.0 mb)
Winds: from the ENE (60 degrees) at 2 MPH (2 knots; 1.0 m/s)
Visibility: 2.49 miles (4.01 km)
Ceiling: at least 12,000 feet AGL
Clouds: few clouds at 2000 feet AGL
Weather: BR  (mist)

METAR text: VLVT 181100Z 06002KT 4000 BR FEW020 29/20 Q1009 NOSIG
Conditions at: VLVT (VIENTIANE/WATTAY, LA) observed 1100 UTC 18 February 2019
Temperature: 29.0°C (84°F)
Dewpoint: 20.0°C (68°F) [RH = 58%]
Pressure (altimeter): 29.79 inches Hg (1009.0 mb)
Winds: from the ENE (60 degrees) at 2 MPH (2 knots; 1.0 m/s)
Visibility: 2.49 miles (4.01 km)
Ceiling: at least 12,000 feet AGL
Clouds: few clouds at 2000 feet AGL
Weather: BR  (mist)

METAR text: VLVT 181030Z 12004KT 8000 SCT020 30/20 Q1008 NOSIG
Conditions at: VLVT (VIENTIANE/WATTAY, LA) observed 1030 UTC 18 February 2019
Temperature: 30.0°C (86°F)
Dewpoint: 20.0°C (68°F) [RH = 55%]
Pressure (altimeter): 29.76 inches Hg (1008.0 mb)
Winds: from the ESE (120 degrees) at 5 MPH (4 knots; 2.1 m/s)
Visibility: 5 miles ( 8 km)
Ceiling: at least 12,000 feet AGL
Clouds: scattered clouds at 2000 feet AGL
Weather: no significant weather observed at this time

METAR text: VLVT 181000Z 12002KT 8000 SCT020 30/21 Q1008 NOSIG
Conditions at: VLVT (VIENTIANE/WATTAY, LA) observed 1000 UTC 18 February 2019
Temperature: 30.0°C (86°F)
Dewpoint: 21.0°C (70°F) [RH = 59%]
Pressure (altimeter): 29.76 inches Hg (1008.0 mb)
Winds: from the ESE (120 degrees) at 2 MPH (2 knots; 1.0 m/s)
Visibility: 5 miles ( 8 km)
Ceiling: at least 12,000 feet AGL
Clouds: scattered clouds at 2000 feet AGL
Weather: no significant weather observed at this time

METAR text: VLVT 180930Z 18002KT 8000 FEW020 30/20 Q1008 NOSIG
Conditions at: VLVT (VIENTIANE/WATTAY, LA) observed 0930 UTC 18 February 2019
Temperature: 30.0°C (86°F)
Dewpoint: 20.0°C (68°F) [RH = 55%]
Pressure (altimeter): 29.76 inches Hg (1008.0 mb)
Winds: from the S (180 degrees) at 2 MPH (2 knots; 1.0 m/s)
Visibility: 5 miles ( 8 km)
Ceiling: at least 12,000 feet AGL
Clouds: few clouds at 2000 feet AGL
Weather: no significant weather observed at this time

METAR text: VLVT 180900Z 18004KT 8000 FEW020 30/21 Q1008 NOSIG
Conditions at: VLVT (VIENTIANE/WATTAY, LA) observed 0900 UTC 18 February 2019
Temperature: 30.0°C (86°F)
Dewpoint: 21.0°C (70°F) [RH = 59%]
Pressure (altimeter): 29.76 inches Hg (1008.0 mb)
Winds: from the S (180 degrees) at 5 MPH (4 knots; 2.1 m/s)
Visibility: 5 miles ( 8 km)
Ceiling: at least 12,000 feet AGL
Clouds: few clouds at 2000 feet AGL
Weather: no significant weather observed at this time

METAR text: VLVT 180830Z 12006KT 8000 FEW020 30/21 Q1008 NOSIG
Conditions at: VLVT (VIENTIANE/WATTAY, LA) observed 0830 UTC 18 February 2019
Temperature: 30.0°C (86°F)
Dewpoint: 21.0°C (70°F) [RH = 59%]
Pressure (altimeter): 29.76 inches Hg (1008.0 mb)
Winds: from the ESE (120 degrees) at 7 MPH (6 knots; 3.1 m/s)
Visibility: 5 miles ( 8 km)
Ceiling: at least 12,000 feet AGL
Clouds: few clouds at 2000 feet AGL
Weather: no significant weather observed at this time

METAR text: VLVT 180800Z 14004KT 8000 SCT020 30/21 Q1009 NOSIG
Conditions at: VLVT (VIENTIANE/WATTAY, LA) observed 0800 UTC 18 February 2019
Temperature: 30.0°C (86°F)
Dewpoint: 21.0°C (70°F) [RH = 59%]
Pressure (altimeter): 29.79 inches Hg (1009.0 mb)
Winds: from the SE (140 degrees) at 5 MPH (4 knots; 2.1 m/s)
Visibility: 5 miles ( 8 km)
Ceiling: at least 12,000 feet AGL
Clouds: scattered clouds at 2000 feet AGL
Weather: no significant weather observed at this time

METAR text: VLVT 180730Z 27004KT 7000 FEW020 30/21 Q1009 NOSIG
Conditions at: VLVT (VIENTIANE/WATTAY, LA) observed 0730 UTC 18 February 2019
Temperature: 30.0°C (86°F)
Dewpoint: 21.0°C (70°F) [RH = 59%]
Pressure (altimeter): 29.79 inches Hg (1009.0 mb)
Winds: from the W (270 degrees) at 5 MPH (4 knots; 2.1 m/s)
Visibility: 4 miles ( 7 km)
Ceiling: at least 12,000 feet AGL
Clouds: few clouds at 2000 feet AGL
Weather: no significant weather observed at this time

METAR text: VLVT 180700Z 22004KT 6000 SCT020 30/21 Q1010 NOSIG
Conditions at: VLVT (VIENTIANE/WATTAY, LA) observed 0700 UTC 18 February 2019
Temperature: 30.0°C (86°F)
Dewpoint: 21.0°C (70°F) [RH = 59%]
Pressure (altimeter): 29.82 inches Hg (1010.0 mb)
Winds: from the SW (220 degrees) at 5 MPH (4 knots; 2.1 m/s)
Visibility: 4 miles ( 6 km)
Ceiling: at least 12,000 feet AGL
Clouds: scattered clouds at 2000 feet AGL
Weather: no significant weather observed at this time

METAR text: VLVT 180630Z 18006KT 7000 SCT020 29/20 Q1011 NOSIG
Conditions at: VLVT (VIENTIANE/WATTAY, LA) observed 0630 UTC 18 February 2019
Temperature: 29.0°C (84°F)
Dewpoint: 20.0°C (68°F) [RH = 58%]
Pressure (altimeter): 29.85 inches Hg (1011.0 mb)
Winds: from the S (180 degrees) at 7 MPH (6 knots; 3.1 m/s)
Visibility: 4 miles ( 7 km)
Ceiling: at least 12,000 feet AGL
Clouds: scattered clouds at 2000 feet AGL
Weather: no significant weather observed at this time

METAR text: VLVT 180600Z 36002KT 6000 SCT020 29/21 Q1012 NOSIG
Conditions at: VLVT (VIENTIANE/WATTAY, LA) observed 0600 UTC 18 February 2019
Temperature: 29.0°C (84°F)
Dewpoint: 21.0°C (70°F) [RH = 62%]
Pressure (altimeter): 29.88 inches Hg (1012.0 mb)
Winds: from the N (360 degrees) at 2 MPH (2 knots; 1.0 m/s)
Visibility: 4 miles ( 6 km)
Ceiling: at least 12,000 feet AGL
Clouds: scattered clouds at 2000 feet AGL
Weather: no significant weather observed at this time

METAR text: VLVT 180530Z 22004KT 6000 SCT020 28/21 Q1013 NOSIG
Conditions at: VLVT (VIENTIANE/WATTAY, LA) observed 0530 UTC 18 February 2019
Temperature: 28.0°C (82°F)
Dewpoint: 21.0°C (70°F) [RH = 66%]
Pressure (altimeter): 29.91 inches Hg (1013.0 mb)
Winds: from the SW (220 degrees) at 5 MPH (4 knots; 2.1 m/s)
Visibility: 4 miles ( 6 km)
Ceiling: at least 12,000 feet AGL
Clouds: scattered clouds at 2000 feet AGL
Weather: no significant weather observed at this time

METAR text: VLVT 180500Z 22006KT 6000 SCT020 SCT040 28/21 Q1013 NOSIG
Conditions at: VLVT (VIENTIANE/WATTAY, LA) observed 0500 UTC 18 February 2019
Temperature: 28.0°C (82°F)
Dewpoint: 21.0°C (70°F) [RH = 66%]
Pressure (altimeter): 29.91 inches Hg (1013.0 mb)
Winds: from the SW (220 degrees) at 7 MPH (6 knots; 3.1 m/s)
Visibility: 4 miles ( 6 km)
Ceiling: at least 12,000 feet AGL
Clouds: scattered clouds at 2000 feet AGL
scattered clouds at 4000 feet AGL
Weather: no significant weather observed at this time

METAR text: VLVT 180430Z 32002KT 6000 SCT020 SCT050 27/21 Q1014 NOSIG
Conditions at: VLVT (VIENTIANE/WATTAY, LA) observed 0430 UTC 18 February 2019
Temperature: 27.0°C (81°F)
Dewpoint: 21.0°C (70°F) [RH = 70%]
Pressure (altimeter): 29.94 inches Hg (1014.0 mb)
Winds: from the NW (320 degrees) at 2 MPH (2 knots; 1.0 m/s)
Visibility: 4 miles ( 6 km)
Ceiling: at least 12,000 feet AGL
Clouds: scattered clouds at 2000 feet AGL
scattered clouds at 5000 feet AGL
Weather: no significant weather observed at this time

METAR text: VLVT 180400Z 32002KT 6000 SCT020 BKN040 26/21 Q1014 NOSIG
Conditions at: VLVT (VIENTIANE/WATTAY, LA) observed 0400 UTC 18 February 2019
Temperature: 26.0°C (79°F)
Dewpoint: 21.0°C (70°F) [RH = 74%]
Pressure (altimeter): 29.94 inches Hg (1014.0 mb)
Winds: from the NW (320 degrees) at 2 MPH (2 knots; 1.0 m/s)
Visibility: 4 miles ( 6 km)
Ceiling: 4000 feet AGL
Clouds: scattered clouds at 2000 feet AGL
broken clouds at 4000 feet AGL
Weather: no significant weather observed at this time

METAR text: VLVT 180330Z 34002KT 6000 BKN040 BKN083 25/21 Q1014 NOSIG
Conditions at: VLVT (VIENTIANE/WATTAY, LA) observed 0330 UTC 18 February 2019
Temperature: 25.0°C (77°F)
Dewpoint: 21.0°C (70°F) [RH = 79%]
Pressure (altimeter): 29.94 inches Hg (1014.0 mb)
Winds: from the NNW (340 degrees) at 2 MPH (2 knots; 1.0 m/s)
Visibility: 4 miles ( 6 km)
Ceiling: 4000 feet AGL
Clouds: broken clouds at 4000 feet AGL
broken clouds at 8300 feet AGL
Weather: no significant weather observed at this time

METAR text: VLVT 180300Z 06004KT 5000 BR BKN040 BKN083 24/21 Q1014 NOSIG
Conditions at: VLVT (VIENTIANE/WATTAY, LA) observed 0300 UTC 18 February 2019
Temperature: 24.0°C (75°F)
Dewpoint: 21.0°C (70°F) [RH = 83%]
Pressure (altimeter): 29.94 inches Hg (1014.0 mb)
Winds: from the ENE (60 degrees) at 5 MPH (4 knots; 2.1 m/s)
Visibility: 3 miles ( 5 km)
Ceiling: 4000 feet AGL
Clouds: broken clouds at 4000 feet AGL
broken clouds at 8300 feet AGL
Weather: BR  (mist)

METAR text: VLVT 180230Z 04002KT 5000 BR BKN040 BKN083 23/21 Q1014 NOSIG
Conditions at: VLVT (VIENTIANE/WATTAY, LA) observed 0230 UTC 18 February 2019
Temperature: 23.0°C (73°F)
Dewpoint: 21.0°C (70°F) [RH = 89%]
Pressure (altimeter): 29.94 inches Hg (1014.0 mb)
Winds: from the NE (40 degrees) at 2 MPH (2 knots; 1.0 m/s)
Visibility: 3 miles ( 5 km)
Ceiling: 4000 feet AGL
Clouds: broken clouds at 4000 feet AGL
broken clouds at 8300 feet AGL
Weather: BR  (mist)

METAR text: VLVT 180200Z 06002KT 5000 BR BKN040 BKN083 23/21 Q1014 NOSIG
Conditions at: VLVT (VIENTIANE/WATTAY, LA) observed 0200 UTC 18 February 2019
Temperature: 23.0°C (73°F)
Dewpoint: 21.0°C (70°F) [RH = 89%]
Pressure (altimeter): 29.94 inches Hg (1014.0 mb)
Winds: from the ENE (60 degrees) at 2 MPH (2 knots; 1.0 m/s)
Visibility: 3 miles ( 5 km)
Ceiling: 4000 feet AGL
Clouds: broken clouds at 4000 feet AGL
broken clouds at 8300 feet AGL
Weather: BR  (mist)

METAR text: VLVT 180130Z 09002KT 4000 BR BKN040 OVC083 22/21 Q1013 NOSIG
Conditions at: VLVT (VIENTIANE/WATTAY, LA) observed 0130 UTC 18 February 2019
Temperature: 22.0°C (72°F)
Dewpoint: 21.0°C (70°F) [RH = 94%]
Pressure (altimeter): 29.91 inches Hg (1013.0 mb)
Winds: from the E (90 degrees) at 2 MPH (2 knots; 1.0 m/s)
Visibility: 2.49 miles (4.01 km)
Ceiling: 4000 feet AGL
Clouds: broken clouds at 4000 feet AGL
overcast cloud deck at 8300 feet AGL
Weather: BR  (mist)

METAR text: VLVT 180100Z 12002KT 4000 BR BKN040 OVC083 21/21 Q1013 NOSIG
Conditions at: VLVT (VIENTIANE/WATTAY, LA) observed 0100 UTC 18 February 2019
Temperature: 21.0°C (70°F)
Dewpoint: 21.0°C (70°F) [RH = 100%]
Pressure (altimeter): 29.91 inches Hg (1013.0 mb)
Winds: from the ESE (120 degrees) at 2 MPH (2 knots; 1.0 m/s)
Visibility: 2.49 miles (4.01 km)
Ceiling: 4000 feet AGL
Clouds: broken clouds at 4000 feet AGL
overcast cloud deck at 8300 feet AGL
Weather: BR  (mist)

METAR text: VLVT 180030Z 09002KT 4000 BR BKN040 OVC083 21/21 Q1013 NOSIG
Conditions at: VLVT (VIENTIANE/WATTAY, LA) observed 0030 UTC 18 February 2019
Temperature: 21.0°C (70°F)
Dewpoint: 21.0°C (70°F) [RH = 100%]
Pressure (altimeter): 29.91 inches Hg (1013.0 mb)
Winds: from the E (90 degrees) at 2 MPH (2 knots; 1.0 m/s)
Visibility: 2.49 miles (4.01 km)
Ceiling: 4000 feet AGL
Clouds: broken clouds at 4000 feet AGL
overcast cloud deck at 8300 feet AGL
Weather: BR  (mist)

METAR text: VLVT 180000Z 06004KT 4000 BR BKN040 BKN083 21/21 Q1012 NOSIG
Conditions at: VLVT (VIENTIANE/WATTAY, LA) observed 0000 UTC 18 February 2019
Temperature: 21.0°C (70°F)
Dewpoint: 21.0°C (70°F) [RH = 100%]
Pressure (altimeter): 29.88 inches Hg (1012.0 mb)
Winds: from the ENE (60 degrees) at 5 MPH (4 knots; 2.1 m/s)
Visibility: 2.49 miles (4.01 km)
Ceiling: 4000 feet AGL
Clouds: broken clouds at 4000 feet AGL
broken clouds at 8300 feet AGL
Weather: BR  (mist)

Forecast for: VLVT (VIENTIANE/WATTAY, LA)
Text: TAF VLVT 190500Z 1906/2006 22004KT 8000 FEW020 FEW200
Forecast period: 0600 UTC 19 February 2019 to 0600 UTC 20 February 2019
Forecast type: FROM: standard forecast or significant change
Winds: from the SW (220 degrees) at 5 MPH (4 knots; 2.1 m/s)
Visibility: 5 miles (8 km)
Ceiling: at least 12,000 feet AGL
Clouds: few clouds at 2000 feet AGL
few clouds at 20000 feet AGL
Weather: no significant weather forecast for this period
Text: TEMPO 1913/2019 4000 BR SCT050
Forecast period: 1300 UTC 19 February 2019 to 1900 UTC 20 February 2019
Forecast type: TEMPORARY: The following changes expected for less than half the time period
Visibility: 2.49 miles (4.01 km)
Ceiling: at least 12,000 feet AGL
Clouds: scattered clouds at 5000 feet AGL
Weather: BR  (mist)